Estación meteorológica de Cercs - La Baells (Berguedà, Cercs)

Consulta los datos en tiempo real de la estación meteorológica de Cercs - La Baells





Hora UTC 17:00
Temperatura 29.3 ºC
Humedad 39.2 %
Presión 1020.2 hPa
Pluja 0.0 mm
Velocidad viento 2.0 km/h
Dirección viento ESE

Datos diarios 2026-09-02



Hora UTC (invierno +1h; verano +2h)
DADES NO VALIDADES
Temperatura (ºC) Humedad (%) Presión (hPa) Velocidad viento (km/h) Precipitación (mm)
Hora UTC Aire Humedad Presión Vel. Dir. Vel. Max Dir. Intent. máx 5 min.
00:05 18.5 86.9 1020.2 0.8 NW 0.8 NW 0.0
00:10 18.5 86.7 1020.2 0.4 NNW 0.8 NW 0.0
00:15 18.5 86.7 1020.2 0.3 NNW 0.8 NW 0.0
00:20 18.4 87.1 1020.2 0.6 NNW 0.8 NW 0.0
00:25 18.4 87.2 1020.2 0.6 NW 0.8 NW 0.0
00:30 18.5 86.5 1020.2 0.2 SSW 0.8 NW 0.0
00:35 18.5 86.4 1020.2 0.2 S 0.8 NW 0.0
00:40 18.4 87.1 1020.2 0.1 SSW 0.8 NW 0.0
00:45 18.3 87.3 1020.2 0.1 SSW 0.8 NW 0.0
00:50 18.2 87.6 1020.2 0.1 SSW 0.8 NW 0.0
00:55 18.2 87.7 1020.2 0.1 SSW 0.8 NW 0.0
01:00 18.1 88.2 1020.2 0.1 S 0.8 NW 0.0
01:05 18.1 88.3 1020.2 0.1 S 0.8 NW 0.0
01:10 17.9 88.9 1020.2 0.1 SW 0.8 NW 0.0
01:15 17.9 89.0 1020.2 0.0 SW 0.8 NW 0.0
01:20 17.9 88.8 1020.2 0.0 SSE 0.8 NW 0.0
01:25 17.9 88.7 1020.2 0.0 SE 0.8 NW 0.0
01:30 17.8 90.3 1020.2 0.1 WNW 0.8 NW 0.0
01:35 17.7 90.6 1020.2 0.1 NNW 0.8 NW 0.0
01:40 17.8 89.8 1020.2 0.1 SW 0.8 NW 0.0
01:45 17.8 89.6 1020.2 0.1 SSW 0.8 NW 0.0
01:50 17.7 89.7 1020.2 0.1 SW 0.8 NW 0.0
01:55 17.7 89.7 1020.2 0.1 SW 0.8 NW 0.0
01:55 17.7 89.7 1020.2 0.1 SW 0.8 NW 0.0
01:55 17.7 89.7 1020.2 0.1 SW 0.8 NW 0.0
02:15 17.5 89.4 1020.2 0.1 S 0.8 NW 0.0
02:20 17.6 89.3 1020.2 0.2 SSE 0.8 NW 0.0
02:25 17.7 89.3 1020.2 0.2 SSE 0.8 NW 0.0
02:30 17.4 90.7 1020.2 0.1 SE 0.8 NW 0.0
02:35 17.4 91.0 1020.2 0.1 SE 0.8 NW 0.0
02:40 17.2 91.1 1020.2 0.1 SW 0.8 NW 0.0
02:45 17.2 91.1 1020.2 0.1 SW 0.8 NW 0.0
02:50 17.2 90.3 1020.2 0.1 S 0.8 NW 0.0
02:55 17.2 90.1 1020.2 0.1 SSE 0.8 NW 0.0
03:00 17.2 90.6 1020.2 0.1 S 0.8 NW 0.0
03:05 17.2 90.7 1020.2 0.1 S 0.8 NW 0.0
03:10 17.2 90.9 1020.2 0.1 S 0.8 NW 0.0
03:15 17.1 91.0 1020.2 0.1 SSE 0.8 NW 0.0
03:20 17.1 91.4 1020.2 0.2 S 0.8 NW 0.0
03:25 17.1 91.5 1020.2 0.2 S 0.8 NW 0.0
03:30 17.1 90.7 1020.2 0.1 SSE 0.8 NW 0.0
03:35 17.1 90.5 1020.2 0.1 SSE 0.8 NW 0.0
03:40 17.1 90.1 1020.2 0.2 WNW 0.8 NW 0.0
03:45 17.2 90.0 1020.2 0.2 NW 0.8 NW 0.0
03:50 17.1 90.9 1020.2 0.1 S 0.8 NW 0.0
03:55 17.1 91.1 1020.2 0.1 SSE 0.8 NW 0.0
04:00 17.0 90.8 1020.2 0.0 W 0.8 NW 0.0
04:05 17.0 90.7 1020.2 0.0 WNW 0.8 NW 0.0
04:10 16.9 91.1 1020.2 0.1 SSW 0.8 NW 0.0
04:15 16.9 91.2 1020.2 0.1 SSW 0.8 NW 0.0
04:20 16.7 92.0 1020.2 0.0 WNW 0.8 NW 0.0
04:25 16.6 92.1 1020.2 0.0 NW 0.8 NW 0.0
04:30 16.7 91.3 1020.2 0.1 WNW 0.8 NW 0.0
04:35 16.7 91.1 1020.2 0.1 WNW 0.8 NW 0.0
04:40 16.7 90.8 1020.2 0.2 NNW 0.8 NW 0.0
04:45 16.7 90.8 1020.2 0.2 NNW 0.8 NW 0.0
04:50 16.6 91.0 1020.2 0.1 ENE 0.8 NW 0.0
04:55 16.6 91.1 1020.2 0.1 N 0.8 NW 0.0
05:00 16.6 90.9 1020.2 0.0 SE 0.8 NW 0.0
05:05 16.6 90.9 1020.2 0.0 SSE 0.8 NW 0.0
05:10 16.7 90.9 1020.2 0.1 WNW 0.8 NW 0.0
05:15 16.8 90.9 1020.2 0.2 NNW 0.8 NW 0.0
05:20 16.7 90.5 1020.2 0.2 NW 0.8 NW 0.0
05:25 16.7 90.4 1020.2 0.2 WNW 0.8 NW 0.0
05:30 16.7 90.2 1020.2 0.1 SSW 0.8 NW 0.0
05:35 16.7 90.2 1020.2 0.1 S 0.8 NW 0.0
05:40 16.6 90.4 1020.2 0.1 W 0.8 NW 0.0
05:45 16.6 90.4 1020.2 0.1 WNW 0.8 NW 0.0
05:50 16.6 90.2 1020.2 0.1 NNW 0.8 NW 0.0
05:55 16.6 90.1 1020.2 0.1 NNW 0.8 NW 0.0
06:00 16.6 90.9 1020.2 0.1 NNW 0.8 NW 0.0
06:00 16.6 90.9 1020.2 0.1 NNW 0.8 NW 0.0
06:10 16.7 89.1 1021.0 0.7 NNW 0.8 NW 0.0
06:15 16.7 88.7 1021.2 0.8 NNW 0.8 NNW 0.0
06:20 17.1 87.5 1021.2 0.6 NW 0.8 NNW 0.0
06:25 17.1 87.3 1021.2 0.5 NW 0.8 NNW 0.0
06:30 17.4 85.5 1021.2 0.4 NNW 0.8 NNW 0.0
06:35 17.4 85.1 1021.2 0.3 NNW 0.8 NNW 0.0
06:40 17.6 84.1 1021.2 0.8 NNW 0.8 NNW 0.0
06:45 17.6 83.9 1021.2 0.8 NNW 0.8 NNW 0.0
06:50 18.0 81.5 1021.2 1.0 NNW 1.0 NNW 0.0
06:55 18.1 80.9 1021.2 1.0 NNW 1.0 NNW 0.0
07:00 18.6 78.1 1021.2 0.7 NNW 1.0 NNW 0.0
07:05 18.7 77.5 1021.2 0.7 NNW 1.0 NNW 0.0
07:10 19.3 75.8 1021.2 0.5 NNW 1.0 NNW 0.0
07:15 19.4 75.3 1021.2 0.5 NNW 1.0 NNW 0.0
07:20 19.6 74.5 1021.2 0.3 NW 1.0 NNW 0.0
07:25 19.7 74.4 1021.2 0.3 NW 1.0 NNW 0.0
07:30 20.0 72.7 1021.2 0.7 NNW 1.0 NNW 0.0
07:35 20.1 72.3 1021.2 0.8 NNW 1.0 NNW 0.0
07:40 20.4 71.8 1021.2 0.3 NW 1.0 NNW 0.0
07:45 20.4 71.7 1021.2 0.3 NW 1.0 NNW 0.0
07:50 21.1 69.6 1021.2 0.2 NW 1.0 NNW 0.0
07:55 21.3 69.1 1021.2 0.2 NW 1.0 NNW 0.0
08:00 21.8 67.0 1021.2 0.3 NW 1.0 NNW 0.0
08:05 21.9 66.5 1021.2 0.3 NW 1.0 NNW 0.0
08:10 22.5 65.5 1021.2 0.3 NW 1.0 NNW 0.0
08:15 22.6 65.2 1021.2 0.2 NW 1.0 NNW 0.0
08:20 23.3 63.0 1021.2 0.2 NW 1.0 NNW 0.0
08:25 23.4 62.5 1021.2 0.2 NW 1.0 NNW 0.0
08:30 24.1 60.3 1021.2 0.2 SW 1.0 NNW 0.0
08:35 24.2 59.7 1021.2 0.2 SSW 1.0 NNW 0.0
08:40 24.5 58.7 1021.2 0.2 SSW 1.0 NNW 0.0
08:45 24.6 58.5 1021.2 0.2 SSW 1.0 NNW 0.0
08:50 24.7 57.6 1021.2 0.2 SSW 1.0 NNW 0.0
08:55 24.8 57.4 1021.2 0.2 SSW 1.0 NNW 0.0
09:00 24.7 57.4 1021.2 0.2 SSW 1.0 NNW 0.0
09:05 24.6 57.4 1021.2 0.2 S 1.0 NNW 0.0
09:10 25.5 53.5 1021.2 0.2 S 1.0 NNW 0.0
09:15 25.7 52.5 1021.2 0.2 S 1.0 NNW 0.0
09:20 26.3 50.1 1021.2 0.2 SW 1.0 NNW 0.0
09:25 26.5 49.6 1021.2 0.2 SW 1.0 NNW 0.0
09:30 27.0 48.1 1021.2 0.2 NE 1.0 NNW 0.0
09:35 27.1 47.8 1021.2 0.2 N 1.0 NNW 0.0
09:40 26.9 47.2 1021.2 0.2 W 1.0 NNW 0.0
09:45 26.8 47.1 1021.2 0.1 NNW 1.0 NNW 0.0
09:50 27.4 44.6 1021.2 0.2 ESE 1.0 NNW 0.0
09:55 27.5 44.2 1021.2 0.2 ENE 1.0 NNW 0.0
10:00 27.7 43.5 1021.2 0.1 ENE 1.0 NNW 0.0
10:05 27.8 43.3 1021.2 0.0 ENE 1.0 NNW 0.0
10:10 27.8 42.5 1021.2 0.6 NNE 1.0 NNW 0.0
10:15 27.9 42.4 1021.2 0.6 NNE 1.0 NNW 0.0
10:20 28.3 41.5 1021.2 0.9 ENE 1.0 NNW 0.0
10:25 28.4 41.3 1021.2 1.0 ENE 1.0 NNW 0.0
10:30 28.5 41.6 1021.2 0.9 ESE 1.0 NNW 0.0
10:35 28.5 41.6 1021.2 0.9 ESE 1.0 NNW 0.0
10:40 29.0 40.3 1021.2 1.6 E 1.6 E 0.0
10:45 29.1 40.0 1021.2 1.8 E 1.8 E 0.0
10:50 28.6 40.5 1021.2 1.2 E 1.8 E 0.0
10:55 28.5 40.6 1021.2 1.1 E 1.8 E 0.0
11:00 28.8 39.7 1021.2 0.9 ENE 1.8 E 0.0
11:05 28.8 39.5 1021.2 0.9 ENE 1.8 E 0.0
11:10 29.0 38.9 1021.2 1.7 E 1.8 E 0.0
11:15 29.0 38.8 1021.2 1.9 E 1.9 E 0.0
11:20 28.6 39.9 1021.2 1.2 ENE 1.9 E 0.0
11:25 28.6 40.1 1021.2 1.0 ENE 1.9 E 0.0
11:30 28.7 40.1 1021.2 1.5 ENE 1.9 E 0.0
11:35 28.7 40.1 1021.2 1.6 ENE 1.9 E 0.0
11:40 29.2 39.9 1021.2 1.9 ENE 1.9 ENE 0.0
11:45 29.3 39.8 1021.2 2.0 ENE 2.0 ENE 0.0
11:50 29.1 41.4 1020.3 1.4 E 2.0 ENE 0.0
11:55 29.0 41.7 1020.2 1.3 E 2.0 ENE 0.0
12:00 30.5 38.8 1020.2 1.2 ESE 2.0 ENE 0.0
12:05 30.8 38.2 1020.2 1.2 ESE 2.0 ENE 0.0
12:10 30.7 38.1 1020.2 1.2 E 2.0 ENE 0.0
12:15 30.6 38.1 1020.2 1.2 E 2.0 ENE 0.0
12:20 30.5 38.7 1020.2 1.0 ESE 2.0 ENE 0.0
12:25 30.4 38.9 1020.2 1.0 ESE 2.0 ENE 0.0
12:30 30.6 38.5 1020.2 0.8 E 2.0 ENE 0.0
12:35 30.6 38.4 1020.2 0.8 E 2.0 ENE 0.0
12:40 30.7 38.2 1020.2 0.7 ESE 2.0 ENE 0.0
12:45 30.7 38.2 1020.2 0.6 ESE 2.0 ENE 0.0
12:50 31.3 36.5 1020.2 1.1 E 2.0 ENE 0.0
12:55 31.4 36.2 1020.2 1.2 E 2.0 ENE 0.0
13:00 31.2 35.8 1020.2 1.4 ESE 2.0 ENE 0.0
13:05 31.2 35.7 1020.2 1.4 ESE 2.0 ENE 0.0
13:10 31.5 34.9 1020.2 1.7 E 2.0 ENE 0.0
13:15 31.5 34.8 1020.2 1.7 E 2.0 ENE 0.0
13:20 30.6 36.3 1020.2 1.4 ESE 2.0 ENE 0.0
13:25 30.4 36.6 1020.2 1.3 ESE 2.0 ENE 0.0
13:30 30.0 37.4 1020.2 1.4 ESE 2.0 ENE 0.0
13:35 29.9 37.6 1020.2 1.4 ESE 2.0 ENE 0.0
13:40 29.9 37.7 1020.2 1.9 SE 2.0 ENE 0.0
13:45 29.9 37.8 1020.2 2.0 SE 2.0 SE 0.0
13:50 29.9 37.9 1020.2 1.0 E 2.0 SE 0.0
13:55 29.9 37.9 1020.2 0.8 E 2.0 SE 0.0
14:00 29.9 38.1 1020.2 1.5 ESE 2.0 SE 0.0
14:05 29.9 38.2 1020.2 1.7 ESE 2.0 SE 0.0
14:10 29.9 38.1 1020.2 1.2 SSE 2.0 SE 0.0
14:15 29.9 38.1 1020.2 1.1 SSE 2.0 SE 0.0
14:20 29.7 38.4 1020.2 2.1 SE 2.1 SE 0.0
14:25 29.6 38.4 1020.2 2.3 SE 2.3 SE 0.0
14:30 29.6 38.2 1020.2 1.5 SE 2.3 SE 0.0
14:35 29.6 38.1 1020.2 1.4 SE 2.3 SE 0.0
14:40 30.0 36.9 1020.2 1.1 SE 2.3 SE 0.0
14:45 30.2 36.6 1020.2 1.0 SE 2.3 SE 0.0
14:50 30.9 35.4 1020.2 1.2 SE 2.3 SE 0.0
14:55 31.0 35.1 1020.2 1.2 SE 2.3 SE 0.0
15:00 31.1 34.7 1020.2 1.5 SE 2.3 SE 0.0
15:05 31.1 34.6 1020.2 1.6 SE 2.3 SE 0.0
15:10 30.7 34.2 1020.2 0.7 ESE 2.3 SE 0.0
15:15 30.6 34.1 1020.2 0.5 ESE 2.3 SE 0.0
15:20 30.5 34.0 1020.2 3.9 ESE 3.9 ESE 0.0
15:25 30.4 34.0 1020.2 4.7 SE 4.7 SE 0.0
15:30 30.3 34.4 1020.2 1.3 SE 4.7 SE 0.0
15:35 30.3 34.4 1020.2 0.6 SE 4.7 SE 0.0
15:40 30.3 34.6 1020.2 1.6 SE 4.7 SE 0.0
15:45 30.3 34.7 1020.2 1.9 SE 4.7 SE 0.0
15:50 30.3 35.0 1020.2 0.8 SE 4.7 SE 0.0
15:55 30.3 35.0 1020.2 0.6 SE 4.7 SE 0.0
16:00 30.1 35.6 1019.4 2.8 ESE 4.7 SE 0.0
16:05 30.1 35.7 1019.2 3.3 ESE 4.7 SE 0.0
16:10 30.0 36.2 1019.2 1.4 ENE 4.7 SE 0.0
16:15 30.0 36.3 1019.2 1.0 NE 4.7 SE 0.0
16:20 29.8 36.9 1020.0 0.3 E 4.7 SE 0.0
16:25 29.8 37.1 1020.2 0.1 E 4.7 SE 0.0
16:30 29.6 37.8 1020.2 1.2 E 4.7 SE 0.0
16:35 29.6 38.0 1020.2 1.4 E 4.7 SE 0.0
16:40 29.5 38.3 1020.2 1.4 E 4.7 SE 0.0
16:45 29.5 38.4 1020.2 1.4 E 4.7 SE 0.0
16:50 29.4 38.8 1020.2 1.3 ESE 4.7 SE 0.0
16:55 29.4 38.9 1020.2 1.3 ESE 4.7 SE 0.0
17:00 29.3 39.2 1020.2 2.0 ESE 4.7 SE 0.0
Máxima 31.5 92.1 1021.2 4.7 SE 4.7 SE 0.0
Mínima 16.6 34.0 1019.2
Total 0.0